Tiempo atmosférico en la estación meteorológica de Guijo De Granadilla, Cáceres (393 m.)



Fecha
DESCASC
Temp. máxima en grados centígrados (hora)
DESCASC
Temp. mínima en grados centígrados (hora)
DESCASC
Temp. media en grados centígrados
DESCASC
Racha de viento máxima en m/sg (hora)
DESCASC
Velocidad máxima media en intervalos de 10 minutos(hora)
DESCASC
Precipitaciones diarias en mm
DESCASC
Precipitaciones de 00:00 a 06:00 en mm
DESCASC
Precipitaciones de 06:00 a 12:00 en mm
DESCASC
Precipitaciones de 12:00 a 18:00 en mm
DESCASC
Precipitaciones de 18:00 a 24:00 en mm
DESCASC
17-09-2020 26.6 (17:30) 16.8 (23:59) 21.7 11.11 (14:10) 6.39 (12:30) 7.4 1.2 1.8 0.2 4.2
16-09-2020 30.8 (15:40) 15.7 (07:20) 23.2 8.89 (14:20) 5 (14:20) 0 0 0 0 0
15-09-2020 29.8 (16:40) 15.4 (08:10) 22.6 8.61 (16:20) 4.44 (15:00) 0 0 0 0 0
14-09-2020 31.1 (15:00) 19.7 (00:00) 25.4 10.83 (14:20) 6.11 (18:00) 0 0 0 0 0
13-09-2020 35.1 (14:10) 18.2 (00:00) 26.6 10 (14:20) 5.83 (14:30) 0 0 0 0 0
12-09-2020 36.1 (16:00) 18.7 (00:00) 27.4 10 (16:20) 4.17 (16:40) 0 0 0 0 0
11-09-2020 34.8 (16:50) 18 (00:00) 26.4 6.11 (17:00) 3.61 (19:10) 0 0 0 0 0
10-09-2020 34.4 (16:40) 17.7 (00:00) 26.1 8.33 (17:40) 3.61 (17:40) 0 0 0 0 0
09-09-2020 32.3 (16:30) 14.6 (00:00) 23.4 6.67 (17:20) 3.89 (17:20) 0 0 0 0 0
08-09-2020 29.7 (17:50) 14.4 (00:00) 22.1 9.17 (01:50) 5.83 (01:20) 0 0 0 0 0
07-09-2020 30.5 (17:20) 17 (07:50) 23.8 13.89 (06:20) 8.61 (06:10) 0 0 0 0 0
06-09-2020 36.2 (17:50) 19.3 (00:00) 27.8 8.61 (10:10) 5.28 (10:10) 0 0 0 0 0
05-09-2020 36.6 (16:20) 19.5 (00:00) 28 8.33 (15:50) 3.89 (13:30) 0 0 0 0 0
04-09-2020 35.6 (17:50) 16.3 (00:00) 25.9 7.22 (15:40) 4.17 (16:40) 0 0 0 0 0
03-09-2020 35.2 (17:10) 17.7 (00:00) 26.5 6.39 (16:30) 3.89 (02:20) 0 0 0 0 0
02-09-2020 33.4 (17:30) 17.5 (00:00) 25.5 8.89 (18:10) 4.72 (10:10) 0 0 0 0 0
01-09-2020 31.5 (17:30) 15.7 (00:00) 23.6 6.39 (18:10) 3.61 (19:10) 0 0 0 0 0
31-08-2020 28.6 (17:50) 13.7 (00:00) 21.2 13.06 (15:10) 3.61 (00:10) 0 0 0 0 0
30-08-2020 26.7 (16:40) 14.3 (00:00) 20.5 10.28 (00:30) 6.39 (02:20) 0 0 0 0 0
29-08-2020 25.7 (17:00) 14.8 (00:00) 20.3 11.11 (09:50) 7.22 (10:10) 0 0 0 0 0
28-08-2020 31.2 (16:20) 21.1 (00:00) 26.2 11.67 (07:00) 7.22 (06:50) 0 0 0 0 0
27-08-2020 37.5 (15:40) 24.1 (00:00) 30.8 9.17 (18:50) 5.28 (19:40) 0 0 0 0 0
26-08-2020 38.4 (18:00) 20.4 (00:00) 29.4 7.22 (16:10) 4.17 (02:10) 0 0 0 0 0
25-08-2020 37.6 (18:10) 18.7 (00:00) 28.1 9.17 (15:50) 4.72 (15:30) 0 0 0 0 0
24-08-2020 36.9 (18:10) 21.7 (00:00) 29.3 10 (02:50) 5.56 (02:50) 0 0 0 0 0
23-08-2020 35.2 (17:30) 21 (00:00) 28.1 10 (06:20) 5.56 (06:20) 0 0 0 0 0
22-08-2020 34.5 (18:30) 17.8 (00:00) 26.1 8.61 (08:50) 5.56 (10:10) 0 0 0 0 0
21-08-2020 29.4 (19:10) 20.4 (00:00) 24.9 7.22 (19:40) 3.89 (12:00) 0 0 0 0 0

Gráficas

Temp. máximas Temp. mínimas Temp. medias Precipitaciones Rachas de viento máximas Velocidades máximas media en intervalos de 10 minutos

Datos horarios

Fecha y hora oficial Temperatura (ºC) Velocidad del viento (km/h) Dirección del viento Racha (km/h) Dirección de racha Precipitación (mm) Presión (hPa) Tendencia (hPa) Humedad (%)
2020-09-19 23:00:00 16.4 3 Este 5 Nordeste 0 -- -- 94
2020-09-19 22:00:00 16.7 4 Nordeste 9 Noroeste 1 -- -- 93
2020-09-19 21:00:00 17.2 4 Norte 8 Norte 0 -- -- 91
2020-09-19 20:00:00 17.4 3 Este 8 Este 0 -- -- 91
2020-09-19 19:00:00 17.5 0 Calma 7 Noroeste 0 -- -- 89
2020-09-19 18:00:00 18.5 5 Noroeste 12 Noroeste 0.4 -- -- 81
2020-09-19 17:00:00 19.3 3 Norte 12 Sudoeste 0 -- -- 74
2020-09-19 16:00:00 19.8 9 Oeste 28 Sudoeste 0 -- -- 71
2020-09-19 15:00:00 19.6 15 Sudoeste 28 Sudoeste 0 -- -- 71
2020-09-19 14:00:00 18.7 17 Sudoeste 29 Sudoeste 0 -- -- 84
2020-09-19 13:00:00 17.6 11 Sudoeste 25 Sudoeste 1.8 -- -- 92
2020-09-19 12:00:00 17.4 13 Sudoeste 21 Sur 0.4 -- -- 92
2020-09-19 11:00:00 16.8 12 Sudoeste 30 Sudoeste 0.2 -- -- 94
2020-09-19 10:00:00 16.3 11 Sudoeste 23 Sudoeste 0 -- -- 94
2020-09-19 09:00:00 16.2 6 Oeste 15 Sudoeste 0 -- -- 94
2020-09-19 08:00:00 16 4 Sur 26 Sur 0 -- -- 94
2020-09-19 07:00:00 16.2 14 Sur 29 Sudoeste 0 -- -- 94
2020-09-19 06:00:00 16.3 19 Sudoeste 32 Sur 0 -- -- 94
2020-09-19 05:00:00 16.3 21 Sudoeste 41 Sudoeste 0 -- -- 94
2020-09-19 04:00:00 16.5 26 Sur 50 Sur 0 -- -- 92
2020-09-19 03:00:00 16.2 27 Sur 48 Sur 5.6 -- -- 94
2020-09-19 02:00:00 16.4 17 Sur 32 Sur 1.6 -- -- 93
2020-09-19 01:00:00 16.7 17 Sur 33 Sur 0 -- -- 92
2020-09-19 00:00:00 16.5 18 Sur 31 Sur 0.2 -- -- 92
2020-09-18 23:00:00 16.1 15 Sur 24 Sudeste 0 -- -- 92
2020-09-18 22:00:00 16.1 13 Sudeste 23 Sudeste 1.8 -- -- 92
2020-09-18 21:00:00 16.3 7 Sur 22 Sudeste 3.4 -- -- 91
2020-09-18 20:00:00 17.1 10 Sudeste 39 Sudeste 0.8 -- -- 85
2020-09-18 19:00:00 19.1 18 Sudeste 37 Sudeste 0 -- -- 73
2020-09-18 18:00:00 21.2 18 Sur 35 Sur 0 -- -- 64
2020-09-18 17:00:00 19.9 14 Sudeste 28 Sudeste 0.2 -- -- 71
2020-09-18 16:00:00 18.6 14 Sudeste 40 Sudeste 0 -- -- 79
2020-09-18 15:00:00 19.4 13 Sudeste 38 Sudeste 0.4 -- -- 76
2020-09-18 14:00:00 22.9 15 Sudeste 29 Sudeste 0 -- -- 55
2020-09-18 13:00:00 22.4 18 Sudeste 32 Sudeste 0 -- -- 58
2020-09-18 12:00:00 20.9 17 Sur 30 Sudeste 0 -- -- 62
2020-09-18 11:00:00 19.3 12 Sudeste 24 Sudeste 0 -- -- 77
2020-09-18 10:00:00 17.1 6 Sudoeste 13 Sur 0 -- -- 90
2020-09-18 09:00:00 15.3 5 Noroeste 14 Sur 0 -- -- 95
2020-09-18 08:00:00 15.1 7 Sur 12 Sur 0.2 -- -- 95
2020-09-18 07:00:00 15.2 3 Sudoeste 6 Sudoeste 0 -- -- 93
2020-09-18 06:00:00 16.1 3 Oeste 9 Sudeste 0.4 -- -- 93
2020-09-18 05:00:00 16.6 6 Sudoeste 14 Sudeste 2.2 -- -- 93
2020-09-18 04:00:00 16.7 3 Sudoeste 12 Oeste 0.2 -- -- 93
2020-09-18 03:00:00 16.8 2 Oeste 8 Oeste 0 -- -- 93
2020-09-18 02:00:00 16.8 2 Oeste 5 Sudoeste 0 -- -- 93
2020-09-18 01:00:00 16.6 0 Calma 9 Este 0 -- -- 93
2020-09-18 00:00:00 16.8 5 Este 10 Este 0 -- -- 92
2020-09-17 23:00:00 17.4 5 Sudoeste 19 Sudoeste 0 -- -- 89
2020-09-17 22:00:00 18.2 12 Sudoeste 20 Sudoeste 0.2 -- -- 88
2020-09-17 21:00:00 18.7 5 Nordeste 9 Nordeste 0 -- -- 89
2020-09-17 20:00:00 19.6 3 Oeste 20 Sudoeste 4 -- -- 81
2020-09-17 19:00:00 24.2 13 Sudoeste 32 Sudeste 0 -- -- 57
2020-09-17 18:00:00 25.5 16 Sudeste 31 Sudeste 0 -- -- 54
2020-09-17 17:00:00 25.5 18 Sudeste 31 Sudeste 0 -- -- 56
2020-09-17 16:00:00 25.5 16 Sudeste 37 Sudeste 0 -- -- 55
2020-09-17 15:00:00 24 19 Sudeste 40 Sudeste 0 -- -- 62
2020-09-17 14:00:00 23.9 17 Sur 39 Sudeste 0 -- -- 59
2020-09-17 13:00:00 25.2 22 Sudeste 40 Sudeste 0.2 -- -- 55
2020-09-17 12:00:00 24.3 21 Sudeste 37 Sudeste 0 -- -- 58
2020-09-17 11:00:00 22.5 16 Sudeste 29 Sudeste 0 -- -- 63
2020-09-17 10:00:00 20.7 5 Sudoeste 10 Oeste 0.2 -- -- 78
2020-09-17 09:00:00 19 3 Norte 10 Noroeste 0 -- -- 84
2020-09-17 08:00:00 18.2 5 Noroeste 9 Noroeste 0.2 -- -- 85
2020-09-17 07:00:00 19 6 Sudeste 31 Sur 1.4 -- -- 78
2020-09-17 06:00:00 20.2 11 Sudeste 24 Sur 1.2 -- -- 73
2020-09-17 05:00:00 21.2 5 Sur 13 Sur 0 -- -- 56
2020-09-17 04:00:00 20.1 6 Sudoeste 14 Sudoeste 0 -- -- 60
2020-09-17 03:00:00 19 0 Calma 7 Sudoeste 0 -- -- 65
2020-09-17 02:00:00 20 2 Norte 8 Nordeste 0 -- -- 64
2020-09-17 01:00:00 21.6 6 Nordeste 19 Este 0 -- -- 60
2020-09-17 00:00:00 22.5 4 Este 15 Sur 0 -- -- 54
2020-09-16 23:00:00 23.6 4 Nordeste 13 Nordeste 0 -- -- 52
2020-09-16 22:00:00 24.8 5 Noroeste 12 Sudoeste 0 -- -- 49
2020-09-16 21:00:00 26.2 8 Noroeste 11 Noroeste 0 -- -- 41
2020-09-16 20:00:00 27.7 5 Sudoeste 7 Sudoeste 0 -- -- 39
2020-09-16 19:00:00 29 4 Sur 15 Sur 0 -- -- 36
2020-09-16 18:00:00 29.8 7 Sudoeste 23 Sur 0 -- -- 34
2020-09-16 17:00:00 30.2 11 Sur 28 Sur 0 -- -- 33
2020-09-16 16:00:00 30.7 10 Sudeste 28 Sudeste 0 -- -- 32
2020-09-16 15:00:00 30.2 17 Sudeste 32 Sur 0 -- -- 32
2020-09-16 14:00:00 29.8 8 Sur 20 Sudeste 0 -- -- 35
2020-09-16 13:00:00 27.4 3 Nordeste 10 Nordeste 0 -- -- 39
2020-09-16 12:00:00 24.1 6 Nordeste 13 Nordeste 0 -- -- 48
2020-09-16 11:00:00 21.3 9 Nordeste 15 Nordeste 0 -- -- 56
2020-09-16 10:00:00 20.2 8 Nordeste 15 Nordeste 0 -- -- 58
2020-09-16 09:00:00 17.6 8 Nordeste 16 Nordeste 0 -- -- 67
2020-09-16 08:00:00 15.9 9 Nordeste 12 Nordeste 0 -- -- 74
2020-09-16 07:00:00 16.4 4 Nordeste 12 Nordeste 0 -- -- 68
2020-09-16 06:00:00 17.2 8 Nordeste 18 Nordeste 0 -- -- 70
2020-09-16 05:00:00 16.3 8 Nordeste 10 Nordeste 0 -- -- 74
2020-09-16 04:00:00 16.5 4 Nordeste 8 Nordeste 0 -- -- 73
2020-09-16 03:00:00 16.5 4 Nordeste 7 Nordeste 0 -- -- 71
2020-09-16 02:00:00 17.1 4 Nordeste 5 Norte 0 -- -- 71
2020-09-16 01:00:00 18 4 Norte 5 Sudoeste 0 -- -- 65
2020-09-16 00:00:00 19 4 Norte 7 Norte 0 -- -- 59
2020-09-15 23:00:00 20.4 4 Este 5 Este 0 -- -- 51
2020-09-15 22:00:00 22.5 3 Sudoeste 4 Sur 0 -- -- 46
2020-09-15 21:00:00 25.1 2 Sur 11 Sudoeste 0 -- -- 41
2020-09-15 20:00:00 28 8 Sudoeste 19 Sudoeste 0 -- -- 35
2020-09-15 19:00:00 29.3 11 Sudoeste 25 Sudoeste 0 -- -- 34
2020-09-15 18:00:00 29.8 9 Sudoeste 28 Sudoeste 0 -- -- 34
2020-09-15 17:00:00 29.6 14 Sudoeste 31 Sudoeste 0 -- -- 35
2020-09-15 16:00:00 29.5 15 Sudoeste 29 Sudoeste 0 -- -- 37
2020-09-15 15:00:00 28.5 16 Sudoeste 26 Sudoeste 0 -- -- 42
2020-09-15 14:00:00 27.5 14 Sudoeste 30 Sudoeste 0 -- -- 44
2020-09-15 13:00:00 26.4 12 Sudoeste 22 Sudoeste 0 -- -- 45
2020-09-15 12:00:00 24.3 6 Sudoeste 15 Sur 0 -- -- 52
2020-09-15 11:00:00 21.7 5 Sudoeste 11 Sur 0 -- -- 60
2020-09-15 10:00:00 19.1 5 Sur 9 Sudoeste 0 -- -- 68
2020-09-15 09:00:00 16.7 2 Sur 3 Sudeste 0 -- -- 77
2020-09-15 08:00:00 15.5 0 Calma 4 Sur 0 -- -- 79
2020-09-15 07:00:00 15.7 0 Calma 4 Este 0 -- -- 81
2020-09-15 06:00:00 16.3 2 Nordeste 4 Sur 0 -- -- 78
2020-09-15 05:00:00 17.7 4 Sur 9 Sudeste 0 -- -- 74
2020-09-15 04:00:00 19 4 Sudeste 8 Sudeste 0 -- -- 73
2020-09-15 03:00:00 19.6 0 Calma 4 Nordeste 0 -- -- 72
2020-09-15 02:00:00 19.7 0 Calma 5 Noroeste 0 -- -- 69
2020-09-15 01:00:00 20.2 2 Sudoeste 7 Sudoeste 0 -- -- 65
2020-09-15 00:00:00 21.2 4 Sur 6 Este 0 -- -- 63
2020-09-14 23:00:00 23 3 Sudeste 9 Nordeste 0 -- -- 55
2020-09-14 22:00:00 25.4 4 Nordeste 10 Nordeste 0 -- -- 44
2020-09-14 21:00:00 27.5 3 Sudoeste 18 Oeste 0 -- -- 38
2020-09-14 20:00:00 28.5 13 Oeste 27 Oeste 0 -- -- 37
2020-09-14 19:00:00 30.2 15 Sudoeste 31 Oeste 0 -- -- 36
2020-09-14 18:00:00 31 22 Sudoeste 35 Sudoeste 0 -- -- 33
2020-09-14 17:00:00 30.5 4 Sudeste 17 Sudoeste 0 -- -- 34
2020-09-14 16:00:00 29.6 13 Sudoeste 33 Sur 0 -- -- 34
2020-09-14 15:00:00 31.1 17 Sur 39 Sudeste 0 -- -- 32
2020-09-14 14:00:00 29.3 12 Sur 32 Sur 0 -- -- 34
2020-09-14 13:00:00 28.5 14 Sur 28 Sudeste 0 -- -- 35
2020-09-14 12:00:00 26.7 5 Sudoeste 20 Sudoeste 0 -- -- 41
2020-09-14 11:00:00 25.4 12 Sudoeste 20 Sudoeste 0 -- -- 52
2020-09-14 10:00:00 21.5 5 Sudoeste 8 Sudoeste 0 -- -- 62
2020-09-14 09:00:00 19.7 4 Sudoeste 9 Sudoeste 0 -- -- 64
2020-09-14 08:00:00 20.1 4 Sudoeste 5 Sudoeste 0 -- -- 61
2020-09-14 07:00:00 20.3 3 Sur 5 Noroeste 0 -- -- 60
2020-09-14 06:00:00 20.1 2 Norte 6 Sudoeste 0 -- -- 56
2020-09-14 05:00:00 21.3 4 Sudoeste 9 Sudoeste 0 -- -- 51
2020-09-14 04:00:00 22.6 7 Sudoeste 11 Sudoeste 0 -- -- 47
2020-09-14 03:00:00 24.3 7 Sur 15 Sur 0 -- -- 43
2020-09-14 02:00:00 24.9 8 Sudoeste 17 Sur 0 -- -- 40
2020-09-14 01:00:00 26.2 11 Sur 23 Sudeste 0 -- -- 35
2020-09-14 00:00:00 24.8 7 Sudoeste 13 Sudoeste 0 -- -- 38
2020-09-13 23:00:00 28.2 7 Sur 11 Sudeste 0 -- -- 32
2020-09-13 22:00:00 28.9 7 Sudeste 13 Sudeste 0 -- -- 30
2020-09-13 21:00:00 30.6 7 Sudeste 20 Sudeste 0 -- -- 28
2020-09-13 20:00:00 32.7 9 Sudeste 23 Sudeste 0 -- -- 25
2020-09-13 19:00:00 33.8 15 Sudeste 32 Sudeste 0 -- -- 23
2020-09-13 18:00:00 34.5 15 Sudeste 29 Sur 0 -- -- 23
2020-09-13 17:00:00 33.5 15 Sudeste 25 Sudeste 0 -- -- 24
2020-09-13 16:00:00 33 17 Sur 34 Sur 0 -- -- 26
2020-09-13 15:00:00 33.3 20 Sur 36 Sudoeste 0 -- -- 26
2020-09-13 14:00:00 34.8 14 Sur 29 Sur 0 -- -- 24
2020-09-13 13:00:00 32.8 9 Sudeste 18 Sur 0 -- -- 27
2020-09-13 12:00:00 29.5 8 Sur 18 Sur 0 -- -- 33
2020-09-13 11:00:00 26.9 3 Noroeste 8 Oeste 0 -- -- 34
2020-09-13 10:00:00 23.8 3 Oeste 8 Nordeste 0 -- -- 38
2020-09-13 09:00:00 19.3 6 Nordeste 9 Nordeste 0 -- -- 52
2020-09-13 08:00:00 19 5 Nordeste 9 Noroeste 0 -- -- 43
2020-09-13 07:00:00 19.5 6 Noroeste 9 Noroeste 0 -- -- 42
2020-09-13 06:00:00 19.8 3 Oeste 10 Sudoeste 0 -- -- 43
2020-09-13 05:00:00 22.2 6 Nordeste 10 Este 0 -- -- 41
2020-09-13 04:00:00 24 5 Nordeste 15 Nordeste 0 -- -- 33
2020-09-13 03:00:00 24.4 8 Nordeste 12 Nordeste 0 -- -- 34
2020-09-13 02:00:00 24.3 7 Nordeste 15 Norte 0 -- -- 36
2020-09-13 01:00:00 25.6 9 Norte 15 Norte 0 -- -- 36
2020-09-13 00:00:00 26.2 9 Norte 14 Nordeste 0 -- -- 34
2020-09-12 23:00:00 26 8 Nordeste 11 Nordeste 0 -- -- 34
2020-09-12 22:00:00 26.2 6 Norte 8 Norte 0 -- -- 33
2020-09-12 21:00:00 30.4 3 Este 8 Este 0 -- -- 26
2020-09-12 20:00:00 33.6 4 Este 11 Este 0 -- -- 23
2020-09-12 19:00:00 34.5 4 Sudeste 17 Sur 0 -- -- 20
2020-09-12 18:00:00 34 12 Sur 23 Sur 0 -- -- 20
2020-09-12 17:00:00 34.1 13 Sur 36 Sur 0 -- -- 20
2020-09-12 16:00:00 36.1 12 Sur 24 Sudoeste 0 -- -- 19
2020-09-12 15:00:00 35.4 9 Sur 33 Sudeste 0 -- -- 20
2020-09-12 14:00:00 34.5 4 Oeste 12 Este 0 -- -- 22
2020-09-12 13:00:00 32.4 4 Sur 10 Sudoeste 0 -- -- 23
2020-09-12 12:00:00 30.3 4 Sudoeste 8 Sudeste 0 -- -- 26
2020-09-12 11:00:00 27 2 Nordeste 14 Nordeste 0 -- -- 32
2020-09-12 10:00:00 23.4 8 Nordeste 17 Nordeste 0 -- -- 40
2020-09-12 09:00:00 19.7 8 Nordeste 14 Este 0 -- -- 50
2020-09-12 08:00:00 18.9 8 Nordeste 14 Nordeste 0 -- -- 51
2020-09-12 07:00:00 19.8 8 Nordeste 12 Nordeste 0 -- -- 48
2020-09-12 06:00:00 20.2 9 Este 13 Este 0 -- -- 46
2020-09-12 05:00:00 20.8 7 Este 12 Nordeste 0 -- -- 44
2020-09-12 04:00:00 22 8 Nordeste 13 Nordeste 0 -- -- 40
2020-09-12 03:00:00 24 9 Nordeste 18 Nordeste 0 -- -- 33
2020-09-12 02:00:00 24.2 10 Norte 17 Nordeste 0 -- -- 33
2020-09-12 01:00:00 24.1 7 Norte 18 Norte 0 -- -- 35
2020-09-12 00:00:00 23.6 6 Nordeste 11 Nordeste 0 -- -- 37
2020-09-11 23:00:00 23.7 6 Nordeste 9 Nordeste 0 -- -- 34
2020-09-11 22:00:00 26.1 3 Este 10 Noroeste 0 -- -- 29
2020-09-11 21:00:00 29 4 Oeste 9 Oeste 0 -- -- 25
2020-09-11 20:00:00 32.3 5 Sudoeste 21 Sur 0 -- -- 22
2020-09-11 19:00:00 33.8 9 Sudoeste 18 Sudoeste 0 -- -- 20
2020-09-11 18:00:00 34.7 8 Sudoeste 22 Sudoeste 0 -- -- 20
2020-09-11 17:00:00 34.6 13 Sur 22 Sur 0 -- -- 19
2020-09-11 16:00:00 34.1 8 Nordeste 18 Sur 0 -- -- 19
2020-09-11 15:00:00 33.5 10 Sudoeste 18 Sudoeste 0 -- -- 22
2020-09-11 14:00:00 33.2 8 Sudoeste 17 Sur 0 -- -- 22
2020-09-11 13:00:00 31.4 4 Sur 12 Sur 0 -- -- 24
2020-09-11 12:00:00 28.8 3 Sudoeste 10 Nordeste 0 -- -- 27
2020-09-11 11:00:00 24.9 7 Nordeste 14 Nordeste 0 -- -- 34
2020-09-11 10:00:00 22.8 8 Nordeste 15 Nordeste 0 -- -- 40
2020-09-11 09:00:00 19.5 7 Nordeste 14 Nordeste 0 -- -- 46
2020-09-11 08:00:00 18.3 5 Nordeste 20 Nordeste 0 -- -- 48
2020-09-11 07:00:00 19.4 12 Norte 21 Norte 0 -- -- 46
2020-09-11 06:00:00 19.6 10 Nordeste 16 Nordeste 0 -- -- 49
2020-09-11 05:00:00 20.3 8 Nordeste 14 Nordeste 0 -- -- 46
2020-09-11 04:00:00 20.4 8 Este 10 Norte 0 -- -- 44
2020-09-11 03:00:00 22.5 6 Nordeste 15 Norte 0 -- -- 36
2020-09-11 02:00:00 23.9 10 Norte 19 Norte 0 -- -- 33
2020-09-11 01:00:00 24.3 10 Norte 15 Norte 0 -- -- 33
2020-09-11 00:00:00 24.1 9 Norte 13 Norte 0 -- -- 32
2020-09-10 23:00:00 24.7 6 Norte 12 Nordeste 0 -- -- 32
2020-09-10 22:00:00 26.5 7 Nordeste 13 Nordeste 0 -- -- 28
2020-09-10 21:00:00 28.6 8 Norte 12 Norte 0 -- -- 26
2020-09-10 20:00:00 31.7 7 Sur 21 Sur 0 -- -- 24
2020-09-10 19:00:00 33.6 9 Sur 24 Sudoeste 0 -- -- 21
2020-09-10 18:00:00 33.7 11 Sudoeste 30 Sudeste 0 -- -- 21
2020-09-10 17:00:00 34 8 Sur 23 Nordeste 0 -- -- 21
2020-09-10 16:00:00 33.3 5 Noroeste 24 Este 0 -- -- 21
2020-09-10 15:00:00 33 9 Sur 21 Sur 0 -- -- 22
2020-09-10 14:00:00 32.4 8 Sudeste 17 Sudeste 0 -- -- 22
2020-09-10 13:00:00 30.8 4 Sur 12 Sudeste 0 -- -- 25
2020-09-10 12:00:00 28.1 4 Sudoeste 12 Sudoeste 0 -- -- 28
2020-09-10 11:00:00 24 4 Nordeste 18 Norte 0 -- -- 33
2020-09-10 10:00:00 22.2 8 Nordeste 13 Nordeste 0 -- -- 36
2020-09-10 09:00:00 19.2 6 Nordeste 18 Nordeste 0 -- -- 44
2020-09-10 08:00:00 17.8 10 Nordeste 21 Norte 0 -- -- 49
2020-09-10 07:00:00 18.9 12 Nordeste 18 Nordeste 0 -- -- 41
2020-09-10 06:00:00 19.6 9 Nordeste 15 Norte 0 -- -- 40
2020-09-10 05:00:00 20.2 10 Nordeste 15 Nordeste 0 -- -- 38
2020-09-10 04:00:00 20.4 11 Nordeste 16 Nordeste 0 -- -- 41
2020-09-10 03:00:00 20.8 9 Nordeste 17 Norte 0 -- -- 40
2020-09-10 02:00:00 19.1 6 Nordeste 8 Nordeste 0 -- -- 49
2020-09-10 01:00:00 19.2 6 Nordeste 8 Nordeste 0 -- -- 51
2020-09-10 00:00:00 19.9 6 Nordeste 10 Nordeste 0 -- -- 47
2020-09-09 23:00:00 21.6 5 Nordeste 7 Este 0 -- -- 37
2020-09-09 22:00:00 24.3 4 Nordeste 9 Sudoeste 0 -- -- 33
2020-09-09 21:00:00 27.1 4 Sudoeste 17 Sudoeste 0 -- -- 28
2020-09-09 20:00:00 30.6 10 Sudoeste 18 Sudoeste 0 -- -- 24
2020-09-09 19:00:00 31.7 9 Sudoeste 21 Sudoeste 0 -- -- 23
2020-09-09 18:00:00 32.2 9 Sudoeste 24 Sudoeste 0 -- -- 22
2020-09-09 17:00:00 32.1 11 Oeste 23 Noroeste 0 -- -- 22
2020-09-09 16:00:00 31.7 9 Sur 22 Sudeste 0 -- -- 22
2020-09-09 15:00:00 30.9 10 Sudeste 21 Este 0 -- -- 24
2020-09-09 14:00:00 30.1 6 Oeste 18 Sudoeste 0 -- -- 24
2020-09-09 13:00:00 28 4 Norte 11 Sudoeste 0 -- -- 28
2020-09-09 12:00:00 26.2 6 Oeste 15 Oeste 0 -- -- 32
2020-09-09 11:00:00 22.4 3 Noroeste 12 Norte 0 -- -- 41
2020-09-09 10:00:00 19.9 8 Nordeste 17 Norte 0 -- -- 50
2020-09-09 09:00:00 16.7 7 Nordeste 14 Nordeste 0 -- -- 59
2020-09-09 08:00:00 15 9 Nordeste 16 Nordeste 0 -- -- 66
2020-09-09 07:00:00 15.7 7 Nordeste 15 Nordeste 0 -- -- 61
2020-09-09 06:00:00 15.2 7 Nordeste 10 Nordeste 0 -- -- 66
2020-09-09 05:00:00 15.5 6 Nordeste 10 Nordeste 0 -- -- 65
2020-09-09 04:00:00 16.3 6 Nordeste 10 Este 0 -- -- 63
2020-09-09 03:00:00 16.8 6 Este 9 Este 0 -- -- 62
2020-09-09 02:00:00 17.8 7 Nordeste 11 Nordeste 0 -- -- 60
2020-09-09 01:00:00 17.8 3 Sudeste 7 Nordeste 0 -- -- 53
2020-09-09 00:00:00 18.7 5 Nordeste 8 Nordeste 0 -- -- 47
2020-09-08 23:00:00 19.8 6 Noroeste 8 Sur 0 -- -- 43
2020-09-08 22:00:00 23.7 5 Sur 10 Sudeste 0 -- -- 33
2020-09-08 21:00:00 25.2 4 Sudoeste 14 Sudeste 0 -- -- 33
2020-09-08 20:00:00 27.5 8 Sur 17 Sur 0 -- -- 32
2020-09-08 19:00:00 28.7 11 Sur 24 Sur 0 -- -- 31
2020-09-08 18:00:00 29.7 9 Sur 24 Sudeste 0 -- -- 28
2020-09-08 17:00:00 29.3 7 Este 31 Sudeste 0 -- -- 30
2020-09-08 16:00:00 28.7 5 Oeste 17 Sudoeste 0 -- -- 29
2020-09-08 15:00:00 28 5 Sudoeste 15 Sudoeste 0 -- -- 27
2020-09-08 14:00:00 26.6 6 Noroeste 15 Este 0 -- -- 28
2020-09-08 13:00:00 24.5 5 Nordeste 15 Nordeste 0 -- -- 32
2020-09-08 12:00:00 22.3 8 Norte 21 Nordeste 0 -- -- 34
2020-09-08 11:00:00 19.4 14 Norte 25 Norte 0 -- -- 40
2020-09-08 10:00:00 17.2 13 Norte 25 Nordeste 0 -- -- 46
2020-09-08 09:00:00 15.1 13 Norte 25 Norte 0 -- -- 51
2020-09-08 08:00:00 14.5 13 Norte 22 Norte 0 -- -- 52
2020-09-08 07:00:00 14.6 12 Norte 28 Norte 0 -- -- 52
2020-09-08 06:00:00 15.7 15 Norte 24 Norte 0 -- -- 49
2020-09-08 05:00:00 16.6 8 Nordeste 26 Norte 0 -- -- 46
2020-09-08 04:00:00 17.5 16 Norte 29 Nordeste 0 -- -- 44
2020-09-08 03:00:00 18.9 14 Norte 30 Norte 0 -- -- 41
2020-09-08 02:00:00 20 18 Norte 33 Norte 0 -- -- 39
2020-09-08 01:00:00 21.1 19 Norte 31 Norte 0 -- -- 36
2020-09-08 00:00:00 22.3 17 Norte 34 Norte 0 -- -- 33
2020-09-07 23:00:00 23.5 21 Norte 36 Nordeste 0 -- -- 32
2020-09-07 22:00:00 24.6 21 Nordeste 38 Nordeste 0 -- -- 30
2020-09-07 21:00:00 25.5 19 Norte 33 Norte 0 -- -- 27
2020-09-07 20:00:00 27.7 19 Norte 33 Norte 0 -- -- 24
2020-09-07 19:00:00 29.2 22 Nordeste 36 Nordeste 0 -- -- 22
2020-09-07 18:00:00 29.7 25 Nordeste 36 Nordeste 0 -- -- 21
2020-09-07 17:00:00 30.2 19 Nordeste 34 Nordeste 0 -- -- 22
2020-09-07 16:00:00 29.9 20 Norte 35 Norte 0 -- -- 23
2020-09-07 15:00:00 28.7 21 Norte 35 Norte 0 -- -- 26
2020-09-07 14:00:00 27.6 24 Norte 34 Norte 0 -- -- 28
2020-09-07 13:00:00 25.9 20 Norte 31 Norte 0 -- -- 32
2020-09-07 12:00:00 23.5 21 Norte 32 Nordeste 0 -- -- 36
2020-09-07 11:00:00 21.6 17 Norte 37 Norte 0 -- -- 39
2020-09-07 10:00:00 18.7 24 Norte 45 Norte 0 -- -- 49
2020-09-07 09:00:00 17.2 27 Norte 41 Norte 0 -- -- 54
2020-09-07 08:00:00 17 22 Norte 39 Norte 0 -- -- 54
2020-09-07 07:00:00 17.4 23 Norte 50 Norte 0 -- -- 52
2020-09-07 06:00:00 18.1 30 Norte 46 Norte 0 -- -- 50
2020-09-07 05:00:00 19.3 27 Norte 42 Norte 0 -- -- 47
2020-09-07 04:00:00 20.9 23 Norte 37 Nordeste 0 -- -- 45
2020-09-07 03:00:00 23.1 24 Norte 38 Norte 0 -- -- 41
2020-09-07 02:00:00 24.3 20 Norte 31 Norte 0 -- -- 41
2020-09-07 01:00:00 25.3 18 Norte 28 Norte 0 -- -- 39
2020-09-07 00:00:00 26.3 17 Norte 27 Norte 0 -- -- 37
2020-09-06 23:00:00 28.9 15 Nordeste 29 Nordeste 0 -- -- 34
2020-09-06 22:00:00 28.1 8 Norte 12 Norte 0 -- -- 32
2020-09-06 21:00:00 30.6 5 Norte 10 Nordeste 0 -- -- 28
2020-09-06 20:00:00 34 5 Sudoeste 17 Sudoeste 0 -- -- 24
2020-09-06 19:00:00 35 12 Sudoeste 20 Sur 0 -- -- 23
2020-09-06 18:00:00 36.2 8 Sur 20 Sur 0 -- -- 22
2020-09-06 17:00:00 34.9 8 Noroeste 20 Sudoeste 0 -- -- 22
2020-09-06 16:00:00 35.1 6 Oeste 17 Oeste 0 -- -- 22
2020-09-06 15:00:00 33.1 4 Noroeste 12 Norte 0 -- -- 25
2020-09-06 14:00:00 31.7 4 Noroeste 13 Nordeste 0 -- -- 28
2020-09-06 13:00:00 30.1 6 Este 19 Norte 0 -- -- 32
2020-09-06 12:00:00 27.2 10 Norte 21 Norte 0 -- -- 39
2020-09-06 11:00:00 24.3 14 Norte 31 Norte 0 -- -- 46
2020-09-06 10:00:00 21.4 18 Norte 29 Norte 0 -- -- 54
2020-09-06 09:00:00 19.8 18 Norte 28 Norte 0 -- -- 59
2020-09-06 08:00:00 19.6 15 Norte 27 Nordeste 0 -- -- 59
2020-09-06 07:00:00 20.2 15 Nordeste 27 Norte 0 -- -- 58
2020-09-06 06:00:00 20.9 14 Norte 28 Nordeste 0 -- -- 56
2020-09-06 05:00:00 22.7 15 Norte 28 Norte 0 -- -- 49
2020-09-06 04:00:00 24.1 15 Norte 25 Nordeste 0 -- -- 44
2020-09-06 03:00:00 25.2 15 Norte 26 Norte 0 -- -- 42
2020-09-06 02:00:00 25.9 12 Norte 22 Norte 0 -- -- 39
2020-09-06 01:00:00 25.5 9 Nordeste 22 Norte 0 -- -- 37
2020-09-06 00:00:00 23.4 3 Norte 7 Norte 0 -- -- 38
2020-09-05 23:00:00 25.5 5 Norte 12 Nordeste 0 -- -- 33
2020-09-05 22:00:00 29.2 9 Sudeste 11 Sudeste 0 -- -- 27
2020-09-05 21:00:00 31.1 4 Sur 13 Sudoeste 0 -- -- 25
2020-09-05 20:00:00 34.4 9 Sudoeste 22 Sudoeste 0 -- -- 21
2020-09-05 19:00:00 35.7 7 Sur 18 Sudoeste 0 -- -- 20
2020-09-05 18:00:00 36.1 10 Sudoeste 23 Sudoeste 0 -- -- 20
2020-09-05 17:00:00 36 13 Sur 28 Sur 0 -- -- 20
2020-09-05 16:00:00 35.7 12 Sur 30 Sudoeste 0 -- -- 21
2020-09-05 15:00:00 34.6 9 Sur 25 Sudoeste 0 -- -- 23
2020-09-05 14:00:00 33.5 11 Sur 23 Sudoeste 0 -- -- 25
2020-09-05 13:00:00 32.3 8 Sudoeste 15 Sudoeste 0 -- -- 26
2020-09-05 12:00:00 30.2 6 Sudoeste 13 Sudoeste 0 -- -- 29
2020-09-05 11:00:00 27.7 2 Nordeste 9 Norte 0 -- -- 34
2020-09-05 10:00:00 25.2 6 Norte 11 Nordeste 0 -- -- 38
2020-09-05 09:00:00 21.5 5 Nordeste 11 Nordeste 0 -- -- 47
2020-09-05 08:00:00 19.5 8 Nordeste 11 Norte 0 -- -- 54
2020-09-05 07:00:00 21.9 7 Nordeste 16 Norte 0 -- -- 43
2020-09-05 06:00:00 21.9 9 Norte 15 Norte 0 -- -- 43
2020-09-05 05:00:00 21.8 8 Norte 12 Norte 0 -- -- 44
2020-09-05 04:00:00 20.7 6 Norte 9 Nordeste 0 -- -- 49
2020-09-05 03:00:00 21.2 4 Norte 10 Norte 0 -- -- 52
2020-09-05 02:00:00 21.9 7 Nordeste 10 Este 0 -- -- 46
2020-09-05 01:00:00 22.2 6 Este 11 Norte 0 -- -- 45
2020-09-05 00:00:00 23.2 6 Nordeste 11 Sudeste 0 -- -- 41
2020-09-04 23:00:00 24.7 5 Este 6 Este 0 -- -- 34
2020-09-04 22:00:00 27.6 3 Norte 6 Noroeste 0 -- -- 29
2020-09-04 21:00:00 31.4 0 Calma 9 Sur 0 -- -- 25
2020-09-04 20:00:00 34.5 4 Sudoeste 18 Sur 0 -- -- 21
2020-09-04 19:00:00 34.9 8 Oeste 18 Sudoeste 0 -- -- 20
2020-09-04 18:00:00 35.4 10 Sudoeste 25 Sudoeste 0 -- -- 20
2020-09-04 17:00:00 35 7 Oeste 26 Sur 0 -- -- 21
2020-09-04 16:00:00 35.4 13 Sur 26 Sudoeste 0 -- -- 21
2020-09-04 15:00:00 33.8 8 Sudoeste 21 Sudoeste 0 -- -- 25
2020-09-04 14:00:00 32.3 6 Sudoeste 19 Sudoeste 0 -- -- 28
2020-09-04 13:00:00 30.8 4 Oeste 13 Sur 0 -- -- 27
2020-09-04 12:00:00 28.7 8 Sur 16 Sudeste 0 -- -- 28
2020-09-04 11:00:00 26 9 Sudoeste 15 Sudoeste 0 -- -- 33
2020-09-04 10:00:00 22.4 4 Noroeste 9 Oeste 0 -- -- 38
2020-09-04 09:00:00 18.5 0 Calma 6 Nordeste 0 -- -- 53
2020-09-04 08:00:00 16.5 5 Este 10 Este 0 -- -- 58
2020-09-04 07:00:00 16.9 3 Sudeste 7 Nordeste 0 -- -- 56
2020-09-04 06:00:00 18.5 4 Nordeste 12 Este 0 -- -- 50
2020-09-04 05:00:00 19.8 6 Nordeste 13 Nordeste 0 -- -- 45
2020-09-04 04:00:00 19.8 7 Nordeste 12 Nordeste 0 -- -- 45
2020-09-04 03:00:00 20 8 Nordeste 10 Este 0 -- -- 47
2020-09-04 02:00:00 20.8 7 Nordeste 10 Este 0 -- -- 46
2020-09-04 01:00:00 22.4 6 Nordeste 11 Nordeste 0 -- -- 42
2020-09-04 00:00:00 22.1 6 Nordeste 9 Nordeste 0 -- -- 34
2020-09-03 23:00:00 23.9 6 Nordeste 8 Nordeste 0 -- -- 30
2020-09-03 22:00:00 27.9 5 Oeste 9 Oeste 0 -- -- 23
2020-09-03 21:00:00 30.6 4 Oeste 12 Sudoeste 0 -- -- 21
2020-09-03 20:00:00 33.7 9 Sudoeste 15 Sur 0 -- -- 18
2020-09-03 19:00:00 34.6 9 Sudoeste 21 Oeste 0 -- -- 17
2020-09-03 18:00:00 35.1 10 Sudoeste 22 Sudoeste 0 -- -- 17
2020-09-03 17:00:00 35 8 Sudoeste 23 Sur 0 -- -- 17
2020-09-03 16:00:00 34.7 8 Sur 21 Sur 0 -- -- 18
2020-09-03 15:00:00 33.9 9 Sur 21 Sudoeste 0 -- -- 19
2020-09-03 14:00:00 32.8 7 Sur 19 Sudoeste 0 -- -- 20
2020-09-03 13:00:00 31.4 4 Este 11 Oeste 0 -- -- 21
2020-09-03 12:00:00 28.9 3 Sur 10 Sur 0 -- -- 24
2020-09-03 11:00:00 24.8 6 Norte 17 Nordeste 0 -- -- 33
2020-09-03 10:00:00 22 10 Nordeste 21 Nordeste 0 -- -- 39
2020-09-03 09:00:00 20.2 8 Nordeste 13 Nordeste 0 -- -- 38
2020-09-03 08:00:00 17.7 6 Este 15 Nordeste 0 -- -- 47
2020-09-03 07:00:00 19.2 9 Nordeste 15 Nordeste 0 -- -- 40
2020-09-03 06:00:00 19.8 10 Nordeste 17 Nordeste 0 -- -- 45
2020-09-03 05:00:00 20 10 Nordeste 14 Nordeste 0 -- -- 42
2020-09-03 04:00:00 22.5 7 Nordeste 16 Nordeste 0 -- -- 32
2020-09-03 03:00:00 23.4 12 Norte 22 Norte 0 -- -- 30
2020-09-03 02:00:00 23.4 12 Norte 21 Norte 0 -- -- 31
2020-09-03 01:00:00 23.8 12 Norte 18 Norte 0 -- -- 29
2020-09-03 00:00:00 22.9 8 Norte 21 Nordeste 0 -- -- 31
2020-09-02 23:00:00 26 10 Nordeste 18 Nordeste 0 -- -- 25
2020-09-02 22:00:00 25.3 7 Nordeste 11 Nordeste 0 -- -- 26
2020-09-02 21:00:00 29.1 5 Sudoeste 14 Sudoeste 0 -- -- 21
2020-09-02 20:00:00 31.8 9 Sudoeste 20 Sudoeste 0 -- -- 19
2020-09-02 19:00:00 32.6 11 Sudoeste 32 Sudoeste 0 -- -- 18
2020-09-02 18:00:00 32.8 8 Oeste 22 Sudoeste 0 -- -- 18
2020-09-02 17:00:00 33 10 Sur 21 Sur 0 -- -- 17
2020-09-02 16:00:00 32.5 9 Sudoeste 20 Sur 0 -- -- 17
2020-09-02 15:00:00 31.9 6 Sudeste 18 Sur 0 -- -- 19
2020-09-02 14:00:00 30.8 6 Sur 17 Sur 0 -- -- 20
2020-09-02 13:00:00 28.8 7 Sur 12 Sur 0 -- -- 22
2020-09-02 12:00:00 26.2 3 Sur 14 Norte 0 -- -- 28
2020-09-02 11:00:00 22.8 9 Nordeste 26 Nordeste 0 -- -- 34
2020-09-02 10:00:00 20.3 13 Norte 25 Norte 0 -- -- 40
2020-09-02 09:00:00 18.3 15 Norte 23 Nordeste 0 -- -- 46
2020-09-02 08:00:00 17.8 13 Nordeste 23 Nordeste 0 -- -- 45
2020-09-02 07:00:00 18.2 12 Norte 21 Norte 0 -- -- 41
2020-09-02 06:00:00 19.5 9 Nordeste 26 Norte 0 -- -- 37
2020-09-02 05:00:00 19.7 11 Norte 20 Nordeste 0 -- -- 39
2020-09-02 04:00:00 19.9 11 Nordeste 21 Nordeste 0 -- -- 43
2020-09-02 03:00:00 20.5 10 Nordeste 22 Nordeste 0 -- -- 41
2020-09-02 02:00:00 19.7 6 Norte 14 Norte 0 -- -- 42
2020-09-02 01:00:00 20.7 10 Norte 14 Norte 0 -- -- 39
2020-09-02 00:00:00 21 6 Norte 12 Norte 0 -- -- 38
2020-09-01 23:00:00 21 5 Nordeste 12 Norte 0 -- -- 36
2020-09-01 22:00:00 24 9 Noroeste 13 Noroeste 0 -- -- 27
2020-09-01 21:00:00 27.2 5 Sudoeste 13 Sur 0 -- -- 23
2020-09-01 20:00:00 29.8 10 Sudoeste 22 Sudoeste 0 -- -- 20
2020-09-01 19:00:00 30.9 10 Sudoeste 23 Sur 0 -- -- 19
2020-09-01 18:00:00 31.2 9 Sudeste 17 Oeste 0 -- -- 18
2020-09-01 17:00:00 30.9 10 Sudoeste 17 Este 0 -- -- 18
2020-09-01 16:00:00 29.9 8 Nordeste 18 Sudoeste 0 -- -- 19
2020-09-01 15:00:00 29.9 6 Sur 17 Sudoeste 0 -- -- 18
2020-09-01 14:00:00 28.5 6 Oeste 18 Sur 0 -- -- 20
2020-09-01 13:00:00 27.2 8 Sudoeste 14 Sur 0 -- -- 23
2020-09-01 12:00:00 25.1 5 Oeste 12 Oeste 0 -- -- 25
2020-09-01 11:00:00 22.4 5 Nordeste 14 Norte 0 -- -- 31
2020-09-01 10:00:00 20.1 2 Sur 6 Este 0 -- -- 38
2020-09-01 09:00:00 15.7 3 Sudeste 7 Nordeste 0 -- -- 45
2020-09-01 08:00:00 16.6 3 Este 15 Nordeste 0 -- -- 41
2020-09-01 07:00:00 17.7 8 Nordeste 14 Nordeste 0 -- -- 40
2020-09-01 06:00:00 18.3 9 Nordeste 14 Este 0 -- -- 42
2020-09-01 05:00:00 19.8 9 Nordeste 16 Nordeste 0 -- -- 30
2020-09-01 04:00:00 19.3 7 Nordeste 14 Norte 0 -- -- 33
2020-09-01 03:00:00 17.8 6 Nordeste 10 Norte 0 -- -- 37
2020-09-01 02:00:00 18.2 5 Nordeste 12 Nordeste 0 -- -- 41
2020-09-01 01:00:00 18.9 6 Nordeste 12 Nordeste 0 -- -- 45
2020-09-01 00:00:00 18.7 6 Nordeste 10 Nordeste 0 -- -- 38
2020-08-31 23:00:00 18.7 4 Norte 11 Este 0 -- -- 35
2020-08-31 22:00:00 22.2 3 Sudoeste 8 Sudoeste 0 -- -- 29
2020-08-31 21:00:00 24.8 5 Sudoeste 13 Sudoeste 0 -- -- 25
2020-08-31 20:00:00 28.5 4 Sur 11 Sudoeste 0 -- -- 20
2020-08-31 19:00:00 28.4 4 Nordeste 18 Sudoeste 0 -- -- 19
2020-08-31 18:00:00 28.6 6 Oeste 17 Sudoeste 0 -- -- 19
2020-08-31 17:00:00 28.3 4 Sudoeste 17 Oeste 0 -- -- 19
2020-08-31 16:00:00 27.6 10 Sur 47 Sudeste 0 -- -- 21
2020-08-31 15:00:00 26.8 5 Sudeste 23 Sudoeste 0 -- -- 22
2020-08-31 14:00:00 26.1 9 Sur 22 Sudoeste 0 -- -- 23
2020-08-31 13:00:00 25 11 Sur 20 Sur 0 -- -- 25
2020-08-31 12:00:00 23.9 6 Sudeste 13 Este 0 -- -- 28
2020-08-31 11:00:00 20.2 5 Norte 11 Nordeste 0 -- -- 34
2020-08-31 10:00:00 17.9 6 Nordeste 14 Norte 0 -- -- 40
2020-08-31 09:00:00 15.1 10 Norte 16 Norte 0 -- -- 48
2020-08-31 08:00:00 14.1 9 Nordeste 14 Nordeste 0 -- -- 48
2020-08-31 07:00:00 14.1 5 Nordeste 13 Nordeste 0 -- -- 47
2020-08-31 06:00:00 14.4 6 Nordeste 14 Nordeste 0 -- -- 47
2020-08-31 05:00:00 15.7 8 Nordeste 14 Nordeste 0 -- -- 43
2020-08-31 04:00:00 15.3 7 Norte 12 Norte 0 -- -- 43
2020-08-31 03:00:00 16.8 7 Norte 13 Norte 0 -- -- 41
2020-08-31 02:00:00 17.6 10 Norte 21 Norte 0 -- -- 39
2020-08-31 01:00:00 18.7 9 Nordeste 23 Norte 0 -- -- 36
2020-08-31 00:00:00 19.1 13 Norte 24 Norte 0 -- -- 35
2020-08-30 23:00:00 20.5 14 Norte 27 Nordeste 0 -- -- 32
2020-08-30 22:00:00 21.4 15 Nordeste 31 Nordeste 0 -- -- 29
2020-08-30 21:00:00 22.8 17 Nordeste 31 Nordeste 0 -- -- 27
2020-08-30 20:00:00 24.7 17 Nordeste 33 Norte 0 -- -- 25
2020-08-30 19:00:00 26 15 Nordeste 27 Nordeste 0 -- -- 24
2020-08-30 18:00:00 26.7 10 Nordeste 28 Nordeste 0 -- -- 23
2020-08-30 17:00:00 26.3 9 Nordeste 24 Nordeste 0 -- -- 23
2020-08-30 16:00:00 25.7 6 Noroeste 19 Norte 0 -- -- 23
2020-08-30 15:00:00 25 9 Nordeste 20 Sur 0 -- -- 25
2020-08-30 14:00:00 23.8 6 Sudeste 19 Nordeste 0 -- -- 27
2020-08-30 13:00:00 22.6 11 Norte 18 Norte 0 -- -- 32
2020-08-30 12:00:00 21.1 9 Nordeste 19 Nordeste 0 -- -- 36
2020-08-30 11:00:00 19.4 9 Nordeste 23 Norte 0 -- -- 41
2020-08-30 10:00:00 17.3 14 Norte 26 Nordeste 0 -- -- 46
2020-08-30 09:00:00 15.7 14 Norte 22 Norte 0 -- -- 52
2020-08-30 08:00:00 14.3 11 Norte 22 Norte 0 -- -- 56
2020-08-30 07:00:00 14.8 14 Norte 22 Norte 0 -- -- 55
2020-08-30 06:00:00 15.3 14 Norte 27 Norte 0 -- -- 56
2020-08-30 05:00:00 15.7 14 Norte 23 Norte 0 -- -- 56
2020-08-30 04:00:00 16.6 15 Norte 28 Norte 0 -- -- 51
2020-08-30 03:00:00 17.5 18 Norte 37 Norte 0 -- -- 48
2020-08-30 02:00:00 18.4 19 Norte 34 Norte 0 -- -- 45
2020-08-30 01:00:00 19.4 14 Nordeste 37 Norte 0 -- -- 42
2020-08-30 00:00:00 20.4 18 Nordeste 32 Norte 0 -- -- 41
2020-08-29 23:00:00 20 10 Norte 17 Nordeste 0 -- -- 39
2020-08-29 22:00:00 20.4 8 Norte 23 Norte 0 -- -- 36
2020-08-29 21:00:00 22.1 10 Norte 28 Noroeste 0 -- -- 32
2020-08-29 20:00:00 23.7 18 Norte 31 Norte 0 -- -- 31
2020-08-29 19:00:00 23.6 18 Norte 36 Norte 0 -- -- 31
2020-08-29 18:00:00 24.9 17 Norte 33 Nordeste 0 -- -- 27
2020-08-29 17:00:00 25.7 16 Norte 31 Este 0 -- -- 26
2020-08-29 16:00:00 24.1 19 Nordeste 36 Nordeste 0 -- -- 29
2020-08-29 15:00:00 24.8 13 Nordeste 32 Nordeste 0 -- -- 30
2020-08-29 14:00:00 23.7 18 Nordeste 40 Norte 0 -- -- 32
2020-08-29 13:00:00 22.4 23 Nordeste 40 Norte 0 -- -- 35
2020-08-29 12:00:00 20.6 19 Norte 33 Nordeste 0 -- -- 39
2020-08-29 11:00:00 18.6 22 Nordeste 40 Nordeste 0 -- -- 45
2020-08-29 10:00:00 16.8 24 Norte 40 Norte 0 -- -- 48
2020-08-29 09:00:00 15.5 20 Norte 37 Norte 0 -- -- 52
2020-08-29 08:00:00 14.9 22 Norte 38 Nordeste 0 -- -- 52
2020-08-29 07:00:00 15.3 23 Norte 39 Nordeste 0 -- -- 52
2020-08-29 06:00:00 16.2 21 Nordeste 39 Norte 0 -- -- 50
2020-08-29 05:00:00 16.9 19 Nordeste 38 Norte 0 -- -- 47
2020-08-29 04:00:00 17 17 Norte 33 Norte 0 -- -- 44
2020-08-29 03:00:00 18.1 13 Norte 31 Norte 0 -- -- 38
2020-08-29 02:00:00 18.9 19 Norte 32 Norte 0 -- -- 43
2020-08-29 01:00:00 19.7 19 Norte 32 Norte 0 -- -- 41
2020-08-29 00:00:00 21.1 24 Norte 38 Norte 0 -- -- 40
2020-08-28 23:00:00 22.5 20 Norte 36 Norte 0 -- -- 37
2020-08-28 22:00:00 23.9 17 Norte 30 Norte 0 -- -- 34
2020-08-28 21:00:00 25.6 15 Noroeste 30 Noroeste 0 -- -- 28
2020-08-28 20:00:00 28 23 Noroeste 35 Oeste 0 -- -- 25
2020-08-28 19:00:00 29.8 19 Noroeste 31 Noroeste 0 -- -- 24
2020-08-28 18:00:00 31.1 15 Noroeste 29 Noroeste 0 -- -- 17
2020-08-28 17:00:00 31.1 18 Noroeste 34 Noroeste 0 -- -- 18
2020-08-28 16:00:00 30.9 18 Noroeste 31 Oeste 0 -- -- 19
2020-08-28 15:00:00 30.6 17 Noroeste 34 Oeste 0 -- -- 25
2020-08-28 14:00:00 29.6 8 Noroeste 24 Norte 0 -- -- 30
2020-08-28 13:00:00 27.9 13 Norte 26 Norte 0 -- -- 36
2020-08-28 12:00:00 26.2 14 Nordeste 27 Norte 0 -- -- 45
2020-08-28 11:00:00 24.6 18 Norte 33 Nordeste 0 -- -- 53
2020-08-28 10:00:00 23.1 17 Norte 32 Norte 0 -- -- 58
2020-08-28 09:00:00 21.8 18 Norte 38 Norte 0 -- -- 64
2020-08-28 08:00:00 21.4 17 Norte 36 Norte 0 -- -- 65
2020-08-28 07:00:00 21.8 24 Norte 42 Norte 0 -- -- 63
2020-08-28 06:00:00 22.3 22 Nordeste 33 Nordeste 0 -- -- 63
2020-08-28 05:00:00 23.3 17 Nordeste 32 Norte 0 -- -- 58
2020-08-28 04:00:00 24.5 19 Nordeste 31 Nordeste 0 -- -- 57
2020-08-28 03:00:00 25.4 15 Nordeste 24 Norte 0 -- -- 55
2020-08-28 02:00:00 26 12 Nordeste 24 Nordeste 0 -- -- 55
2020-08-28 01:00:00 27.1 14 Norte 29 Norte 0 -- -- 51
2020-08-28 00:00:00 28.4 17 Norte 33 Nordeste 0 -- -- 46
2020-08-27 23:00:00 29.7 15 Norte 26 Norte 0 -- -- 40
2020-08-27 22:00:00 29.8 7 Norte 13 Norte 0 -- -- 30
2020-08-27 21:00:00 32.4 9 Noroeste 27 Noroeste 0 -- -- 27
2020-08-27 20:00:00 34.8 15 Noroeste 30 Noroeste 0 -- -- 23
2020-08-27 19:00:00 36.5 19 Noroeste 33 Oeste 0 -- -- 23
2020-08-27 18:00:00 37.2 15 Sur 29 Sudoeste 0 -- -- 25
2020-08-27 17:00:00 37.5 15 Sur 29 Sudoeste 0 -- -- 26
2020-08-27 16:00:00 37.4 11 Sudoeste 30 Sudoeste 0 -- -- 28
2020-08-27 15:00:00 37.1 6 Oeste 17 Sudoeste 0 -- -- 24
2020-08-27 14:00:00 35.7 8 Nordeste 22 Norte 0 -- -- 27
2020-08-27 13:00:00 33.5 12 Norte 27 Norte 0 -- -- 34
2020-08-27 12:00:00 31.6 17 Norte 28 Norte 0 -- -- 38
2020-08-27 11:00:00 29.5 17 Norte 27 Norte 0 -- -- 45
2020-08-27 10:00:00 27 15 Norte 32 Nordeste 0 -- -- 51
2020-08-27 09:00:00 25.5 17 Norte 29 Norte 0 -- -- 54
2020-08-27 08:00:00 24.6 13 Nordeste 24 Nordeste 0 -- -- 54
2020-08-27 07:00:00 24.2 7 Nordeste 15 Norte 0 -- -- 54
2020-08-27 06:00:00 25.4 9 Nordeste 18 Nordeste 0 -- -- 50
2020-08-27 05:00:00 25.3 13 Norte 21 Norte 0 -- -- 47
2020-08-27 04:00:00 24.9 11 Norte 16 Norte 0 -- -- 48
2020-08-27 03:00:00 26.1 10 Nordeste 20 Nordeste 0 -- -- 42
2020-08-27 02:00:00 26.7 11 Nordeste 17 Nordeste 0 -- -- 41
2020-08-27 01:00:00 25.1 10 Norte 12 Norte 0 -- -- 34
2020-08-27 00:00:00 25.4 8 Norte 10 Noroeste 0 -- -- 34
2020-08-26 23:00:00 27.8 6 Nordeste 13 Nordeste 0 -- -- 28
2020-08-26 22:00:00 30.1 9 Noroeste 17 Noroeste 0 -- -- 22
2020-08-26 21:00:00 33.8 4 Sur 17 Sudoeste 0 -- -- 20
2020-08-26 20:00:00 36.6 11 Sudoeste 20 Sudoeste 0 -- -- 16
2020-08-26 19:00:00 37.6 11 Sur 21 Sudoeste 0 -- -- 14
2020-08-26 18:00:00 38.4 7 Sudoeste 16 Sur 0 -- -- 14
2020-08-26 17:00:00 37.9 9 Sur 26 Sur 0 -- -- 14
2020-08-26 16:00:00 37.4 13 Sudoeste 25 Sur 0 -- -- 13
2020-08-26 15:00:00 36.6 10 Sudoeste 22 Sudoeste 0 -- -- 15
2020-08-26 14:00:00 35.6 10 Sudoeste 21 Sur 0 -- -- 18
2020-08-26 13:00:00 34.2 11 Sur 21 Sur 0 -- -- 22
2020-08-26 12:00:00 31.8 5 Sudoeste 11 Este 0 -- -- 26
2020-08-26 11:00:00 29 7 Nordeste 12 Nordeste 0 -- -- 31
2020-08-26 10:00:00 26.4 8 Nordeste 18 Nordeste 0 -- -- 37
2020-08-26 09:00:00 23.4 12 Nordeste 18 Nordeste 0 -- -- 44
2020-08-26 08:00:00 20.4 3 Este 12 Nordeste 0 -- -- 51
2020-08-26 07:00:00 22.7 4 Nordeste 14 Nordeste 0 -- -- 43
2020-08-26 06:00:00 23.8 8 Nordeste 17 Norte 0 -- -- 40
2020-08-26 05:00:00 25.4 10 Norte 24 Norte 0 -- -- 38
2020-08-26 04:00:00 25.8 14 Norte 24 Norte 0 -- -- 37
2020-08-26 03:00:00 26.1 14 Norte 23 Norte 0 -- -- 33
2020-08-26 02:00:00 26.7 12 Norte 22 Norte 0 -- -- 26
2020-08-26 01:00:00 24.6 9 Norte 13 Norte 0 -- -- 33
2020-08-26 00:00:00 25 3 Nordeste 9 Nordeste 0 -- -- 35
2020-08-25 23:00:00 26.8 4 Norte 13 Nordeste 0 -- -- 31
2020-08-25 22:00:00 30.7 4 Oeste 11 Noroeste 0 -- -- 25
2020-08-25 21:00:00 33.9 3 Sudoeste 13 Sur 0 -- -- 23
2020-08-25 20:00:00 36.4 11 Sudoeste 20 Sudoeste 0 -- -- 18
2020-08-25 19:00:00 37.3 10 Sudoeste 29 Sur 0 -- -- 18
2020-08-25 18:00:00 37.4 7 Sur 26 Sudoeste 0 -- -- 18
2020-08-25 17:00:00 37.2 9 Sur 27 Sur 0 -- -- 18
2020-08-25 16:00:00 37.1 14 Sudoeste 33 Sudoeste 0 -- -- 18
2020-08-25 15:00:00 36.4 15 Sur 29 Sudeste 0 -- -- 19
2020-08-25 14:00:00 35.8 8 Sur 20 Sudoeste 0 -- -- 22
2020-08-25 13:00:00 33.9 7 Sudoeste 14 Sudoeste 0 -- -- 24
2020-08-25 12:00:00 31.6 4 Norte 10 Nordeste 0 -- -- 27
2020-08-25 11:00:00 28 6 Nordeste 13 Nordeste 0 -- -- 33
2020-08-25 10:00:00 24.4 9 Nordeste 18 Nordeste 0 -- -- 43
2020-08-25 09:00:00 20.8 5 Norte 11 Este 0 -- -- 50
2020-08-25 08:00:00 18.7 8 Este 10 Este 0 -- -- 55
2020-08-25 07:00:00 21.1 4 Este 20 Norte 0 -- -- 47
2020-08-25 06:00:00 22 10 Nordeste 15 Norte 0 -- -- 46
2020-08-25 05:00:00 23 9 Nordeste 15 Nordeste 0 -- -- 41
2020-08-25 04:00:00 24.2 8 Nordeste 13 Nordeste 0 -- -- 38
2020-08-25 03:00:00 24.9 6 Nordeste 18 Norte 0 -- -- 36
2020-08-25 02:00:00 26 9 Nordeste 17 Norte 0 -- -- 35
2020-08-25 01:00:00 24.6 7 Nordeste 13 Nordeste 0 -- -- 39
2020-08-25 00:00:00 24.7 6 Nordeste 11 Nordeste 0 -- -- 40
2020-08-24 23:00:00 25.9 5 Norte 12 Noroeste 0 -- -- 36
2020-08-24 22:00:00 29.4 8 Noroeste 9 Noroeste 0 -- -- 29
2020-08-24 21:00:00 32.8 4 Sudoeste 12 Sudoeste 0 -- -- 25
2020-08-24 20:00:00 34.3 4 Oeste 16 Sudoeste 0 -- -- 21
2020-08-24 19:00:00 36.1 9 Oeste 23 Sudoeste 0 -- -- 18
2020-08-24 18:00:00 36.6 10 Oeste 21 Sudoeste 0 -- -- 17
2020-08-24 17:00:00 36.4 10 Sudoeste 24 Sudoeste 0 -- -- 18
2020-08-24 16:00:00 36.3 11 Sudoeste 27 Sudoeste 0 -- -- 18
2020-08-24 15:00:00 35.5 8 Sur 22 Sur 0 -- -- 20
2020-08-24 14:00:00 34.4 7 Oeste 16 Oeste 0 -- -- 19
2020-08-24 13:00:00 32.5 5 Sur 13 Oeste 0 -- -- 23
2020-08-24 12:00:00 29.8 3 Nordeste 11 Norte 0 -- -- 25
2020-08-24 11:00:00 27.9 5 Nordeste 17 Norte 0 -- -- 28
2020-08-24 10:00:00 25.2 10 Nordeste 20 Norte 0 -- -- 33
2020-08-24 09:00:00 22.8 13 Norte 24 Norte 0 -- -- 37
2020-08-24 08:00:00 21.8 16 Norte 26 Norte 0 -- -- 38
2020-08-24 07:00:00 22.5 13 Norte 23 Norte 0 -- -- 36
2020-08-24 06:00:00 23.5 12 Nordeste 25 Norte 0 -- -- 33
2020-08-24 05:00:00 23.7 17 Norte 30 Nordeste 0 -- -- 33
2020-08-24 04:00:00 24.3 18 Norte 33 Norte 0 -- -- 32
2020-08-24 03:00:00 25 19 Norte 36 Norte 0 -- -- 32
2020-08-24 02:00:00 25.8 17 Norte 30 Nordeste 0 -- -- 31
2020-08-24 01:00:00 26.3 17 Norte 27 Norte 0 -- -- 30
2020-08-24 00:00:00 27.2 17 Norte 24 Norte 0 -- -- 28
2020-08-23 23:00:00 27.2 9 Nordeste 14 Nordeste 0 -- -- 31
2020-08-23 22:00:00 28.9 10 Nordeste 18 Norte 0 -- -- 25
2020-08-23 21:00:00 31.3 9 Nordeste 22 Nordeste 0 -- -- 23
2020-08-23 20:00:00 33.7 13 Nordeste 22 Nordeste 0 -- -- 18
2020-08-23 19:00:00 34.7 10 Norte 24 Norte 0 -- -- 17
2020-08-23 18:00:00 34.8 13 Norte 24 Este 0 -- -- 17
2020-08-23 17:00:00 34.8 8 Norte 23 Noroeste 0 -- -- 17
2020-08-23 16:00:00 34.1 9 Norte 24 Norte 0 -- -- 17
2020-08-23 15:00:00 33.1 9 Noroeste 24 Noroeste 0 -- -- 17
2020-08-23 14:00:00 32.6 10 Nordeste 25 Nordeste 0 -- -- 18
2020-08-23 13:00:00 31.4 9 Norte 22 Nordeste 0 -- -- 22
2020-08-23 12:00:00 29 11 Norte 21 Norte 0 -- -- 25
2020-08-23 11:00:00 26.4 12 Norte 22 Nordeste 0 -- -- 28
2020-08-23 10:00:00 24 14 Norte 23 Norte 0 -- -- 33
2020-08-23 09:00:00 22 11 Norte 18 Norte 0 -- -- 38
2020-08-23 08:00:00 21.2 11 Nordeste 22 Norte 0 -- -- 39
2020-08-23 07:00:00 21.6 14 Norte 36 Norte 0 -- -- 37
2020-08-23 06:00:00 21.8 17 Norte 29 Nordeste 0 -- -- 36
2020-08-23 05:00:00 21.4 13 Norte 23 Norte 0 -- -- 38
2020-08-23 04:00:00 21.5 13 Norte 21 Norte 0 -- -- 37
2020-08-23 03:00:00 21.8 13 Norte 20 Norte 0 -- -- 33
2020-08-23 02:00:00 23.5 12 Nordeste 21 Nordeste 0 -- -- 29
2020-08-23 01:00:00 23.7 10 Norte 19 Norte 0 -- -- 31
2020-08-23 00:00:00 24.8 9 Nordeste 20 Nordeste 0 -- -- 28
2020-08-22 23:00:00 25.8 12 Nordeste 18 Nordeste 0 -- -- 26
2020-08-22 22:00:00 25.9 8 Norte 15 Noroeste 0 -- -- 24
2020-08-22 21:00:00 30 10 Noroeste 19 Sur 0 -- -- 21
2020-08-22 20:00:00 32.9 13 Sudoeste 29 Sudoeste 0 -- -- 20
2020-08-22 19:00:00 34.1 12 Sudoeste 24 Sudoeste 0 -- -- 20
2020-08-22 18:00:00 34.3 12 Sudoeste 25 Oeste 0 -- -- 22
2020-08-22 17:00:00 34.3 5 Sudoeste 15 Sudeste 0 -- -- 19
2020-08-22 16:00:00 33.6 10 Sudoeste 18 Sur 0 -- -- 18
2020-08-22 15:00:00 31.7 5 Noroeste 22 Noroeste 0 -- -- 19
2020-08-22 14:00:00 30.1 9 Norte 20 Nordeste 0 -- -- 22
2020-08-22 13:00:00 28 10 Norte 21 Norte 0 -- -- 33
2020-08-22 12:00:00 26.2 11 Norte 23 Nordeste 0 -- -- 40
2020-08-22 11:00:00 24.4 14 Norte 28 Norte 0 -- -- 44
2020-08-22 10:00:00 21.8 18 Norte 30 Norte 0 -- -- 52
2020-08-22 09:00:00 19.7 18 Norte 31 Norte 0 -- -- 60
2020-08-22 08:00:00 17.8 13 Norte 24 Norte 0 -- -- 69
2020-08-22 07:00:00 18.4 13 Norte 27 Norte 0 -- -- 66
2020-08-22 06:00:00 18.6 14 Norte 25 Norte 0 -- -- 66
2020-08-22 05:00:00 19.3 14 Norte 24 Norte 0 -- -- 64
2020-08-22 04:00:00 20.3 15 Norte 26 Nordeste 0 -- -- 60
2020-08-22 03:00:00 20.7 15 Norte 27 Norte 0 -- -- 58
2020-08-22 02:00:00 21.9 13 Nordeste 23 Nordeste 0 -- -- 54
2020-08-22 01:00:00 21.6 10 Nordeste 19 Nordeste 0 -- -- 57
2020-08-22 00:00:00 20.9 5 Nordeste 10 Norte 0 -- -- 66
2020-08-21 23:00:00 22.1 5 Nordeste 9 Noroeste 0 -- -- 59
2020-08-21 22:00:00 23.9 5 Oeste 9 Oeste 0 -- -- 53
2020-08-21 21:00:00 27 5 Oeste 19 Oeste 0 -- -- 46
2020-08-21 20:00:00 28.7 11 Oeste 26 Sudoeste 0 -- -- 41
2020-08-21 19:00:00 29.2 9 Sudoeste 21 Sudoeste 0 -- -- 45
2020-08-21 18:00:00 27.2 8 Oeste 21 Oeste 0 -- -- 55
2020-08-21 17:00:00 26.8 11 Sudoeste 20 Oeste 0 -- -- 59
2020-08-21 16:00:00 26.2 8 Oeste 21 Sudoeste 0 -- -- 63
2020-08-21 15:00:00 25.5 7 Oeste 18 Noroeste 0 -- -- 65
2020-08-21 14:00:00 23.9 8 Oeste 20 Sudoeste 0 -- -- 70
2020-08-21 13:00:00 23.4 10 Oeste 21 Sur 0 -- -- 76
2020-08-21 12:00:00 23.3 14 Sudoeste 22 Sudoeste 0 -- -- 74
2020-08-21 11:00:00 23.1 12 Sudoeste 20 Sudoeste 0 -- -- 78
2020-08-21 10:00:00 22.9 7 Sudoeste 13 Sur 0 -- -- 77
2020-08-21 09:00:00 21.7 6 Sudoeste 10 Sudoeste 0 -- -- 84
2020-08-21 08:00:00 20.9 3 Sur 5 Sur 0 -- -- 87
2020-08-21 07:00:00 20.5 0 Calma 7 Sudoeste 0 -- -- 87
2020-08-21 06:00:00 20.4 5 Sudoeste 8 Sudoeste 0 -- -- 88
2020-08-21 05:00:00 21 4 Sur 10 Sur 0 -- -- 85
2020-08-21 04:00:00 21.5 4 Sur 12 Sudoeste 0 -- -- 82
2020-08-21 03:00:00 22.7 6 Sudoeste 15 Sudoeste 0 -- -- 77
2020-08-21 02:00:00 23.6 8 Sudoeste 12 Sudoeste 0 -- -- 72
2020-08-21 01:00:00 24.2 6 Sudoeste 19 Oeste 0 -- -- 69
2020-08-21 00:00:00 25.1 7 Oeste 24 Oeste 0 -- -- 65